createdAt,value
2017-08-23T00:00:36.893Z,11.97
2017-08-23T00:03:04.394Z,11.00
2017-08-23T00:05:31.931Z,11.70
2017-08-23T00:07:59.448Z,11.93
2017-08-23T00:10:26.994Z,11.10
2017-08-23T00:12:54.544Z,10.80
2017-08-23T00:15:22.107Z,10.60
2017-08-23T00:17:49.643Z,10.80
2017-08-23T00:20:18.304Z,10.57
2017-08-23T00:22:46.879Z,10.77
2017-08-23T00:25:14.479Z,10.40
2017-08-23T00:27:42.024Z,9.30
2017-08-23T00:30:09.553Z,9.27
2017-08-23T00:32:37.111Z,9.37
2017-08-23T00:35:04.632Z,9.70
2017-08-23T00:37:32.143Z,9.80
2017-08-23T00:39:59.686Z,9.67
2017-08-23T00:42:27.217Z,9.40
2017-08-23T00:44:54.759Z,10.30
2017-08-23T00:47:22.275Z,9.93
2017-08-23T00:49:49.836Z,10.03
2017-08-23T00:52:18.539Z,10.00
2017-08-23T00:54:46.549Z,9.10
2017-08-23T00:57:14.079Z,9.70
2017-08-23T00:59:41.604Z,9.70
2017-08-23T01:02:09.138Z,9.70
2017-08-23T01:04:36.668Z,8.97
2017-08-23T01:07:04.215Z,9.47
2017-08-23T01:09:31.726Z,8.83
2017-08-23T01:11:59.246Z,9.00
2017-08-23T01:14:26.780Z,9.37
2017-08-23T01:16:54.292Z,8.63
2017-08-23T01:19:21.824Z,8.50
2017-08-23T01:21:49.716Z,8.13
2017-08-23T01:24:18.253Z,9.10
2017-08-23T01:26:46.157Z,8.27
2017-08-23T01:29:13.665Z,8.20
2017-08-23T01:31:41.181Z,8.27
2017-08-23T01:34:08.677Z,8.13
2017-08-23T01:36:36.201Z,9.10
2017-08-23T01:39:03.724Z,8.43
2017-08-23T01:41:31.279Z,8.17
2017-08-23T01:43:58.791Z,7.73
2017-08-23T01:46:26.301Z,7.70
2017-08-23T01:48:53.831Z,7.40
2017-08-23T01:51:21.339Z,8.13
2017-08-23T01:53:48.887Z,7.50
2017-08-23T01:56:16.940Z,7.60
2017-08-23T01:58:44.451Z,8.00
2017-08-23T02:01:11.968Z,7.83
2017-08-23T02:03:39.503Z,8.07
2017-08-23T02:06:06.993Z,7.27
2017-08-23T02:08:34.492Z,7.40
2017-08-23T02:11:02.014Z,7.27
2017-08-23T02:13:29.531Z,8.00
2017-08-23T02:15:57.055Z,7.30
2017-08-23T02:18:24.558Z,7.10
2017-08-23T02:20:52.103Z,7.90
2017-08-23T02:23:19.609Z,7.40
2017-08-23T02:25:48.260Z,7.30
2017-08-23T02:28:16.184Z,7.53
2017-08-23T02:30:43.702Z,7.20
2017-08-23T02:33:11.240Z,7.80
2017-08-23T02:35:38.734Z,7.30
2017-08-23T02:38:06.273Z,6.83
2017-08-23T02:40:33.770Z,7.37
2017-08-23T02:43:01.314Z,7.47
2017-08-23T02:45:28.842Z,7.57
2017-08-23T02:47:56.347Z,7.60
2017-08-23T02:50:23.879Z,7.57
2017-08-23T02:52:51.391Z,6.50
2017-08-23T02:55:18.920Z,6.90
2017-08-23T02:57:47.396Z,7.10
2017-08-23T03:00:14.927Z,6.07
2017-08-23T03:02:42.462Z,7.27
2017-08-23T03:05:09.971Z,7.47
2017-08-23T03:07:37.512Z,6.60
2017-08-23T03:10:05.011Z,6.97
2017-08-23T03:12:32.505Z,7.70
2017-08-23T03:15:00.025Z,6.53
2017-08-23T03:17:27.531Z,6.67
2017-08-23T03:19:55.052Z,7.23
2017-08-23T03:22:22.563Z,6.40
2017-08-23T03:24:50.092Z,7.30
2017-08-23T03:27:18.723Z,6.90
2017-08-23T03:29:47.640Z,6.83
2017-08-23T03:32:15.161Z,6.73
2017-08-23T03:34:42.670Z,7.10
2017-08-23T03:37:10.206Z,7.03
2017-08-23T03:39:37.719Z,6.50
2017-08-23T03:42:05.246Z,6.73
2017-08-23T03:44:32.749Z,6.50
2017-08-23T03:47:00.282Z,6.43
2017-08-23T03:49:27.800Z,6.23
2017-08-23T03:51:55.293Z,6.87
2017-08-23T03:54:22.809Z,6.67
2017-08-23T03:56:50.302Z,6.50
2017-08-23T03:59:17.862Z,6.40
2017-08-23T04:01:45.370Z,7.00
2017-08-23T04:04:12.871Z,6.83
2017-08-23T04:06:40.415Z,6.80
2017-08-23T04:09:07.948Z,6.73
2017-08-23T04:11:35.467Z,6.93
2017-08-23T04:14:02.969Z,6.50
2017-08-23T04:16:30.489Z,5.97
2017-08-23T04:18:57.985Z,7.27
2017-08-23T04:21:25.504Z,6.43
2017-08-23T04:23:53.092Z,6.07
2017-08-23T04:26:20.596Z,6.10
2017-08-23T04:28:48.428Z,7.00
2017-08-23T04:31:17.413Z,6.50
2017-08-23T04:33:44.943Z,7.17
2017-08-23T04:36:12.442Z,6.30
2017-08-23T04:38:39.960Z,6.57
2017-08-23T04:41:07.489Z,6.87
2017-08-23T04:43:34.981Z,6.43
2017-08-23T04:46:02.505Z,6.90
2017-08-23T04:48:30.023Z,6.43
2017-08-23T04:50:57.541Z,6.17
2017-08-23T04:53:25.047Z,6.50
2017-08-23T04:55:52.551Z,5.90
2017-08-23T04:58:20.076Z,6.27
2017-08-23T05:00:48.228Z,6.07
2017-08-23T05:03:16.196Z,6.50
2017-08-23T05:05:43.690Z,5.90
2017-08-23T05:08:11.218Z,6.13
2017-08-23T05:10:38.713Z,6.27
2017-08-23T05:13:06.219Z,6.10
2017-08-23T05:15:33.736Z,6.20
2017-08-23T05:18:01.252Z,6.40
2017-08-23T05:20:28.820Z,6.07
2017-08-23T05:22:56.322Z,6.10
2017-08-23T05:25:23.842Z,5.90
2017-08-23T05:27:51.349Z,5.80
2017-08-23T05:30:18.847Z,6.37
2017-08-23T05:32:47.277Z,5.90
2017-08-23T05:35:14.782Z,5.87
2017-08-23T05:37:42.313Z,5.70
2017-08-23T05:40:09.811Z,5.83
2017-08-23T05:42:37.397Z,6.87
2017-08-23T05:45:04.922Z,5.83
2017-08-23T05:47:32.448Z,6.00
2017-08-23T05:49:59.973Z,5.50
2017-08-23T05:52:27.477Z,5.70
2017-08-23T05:54:54.992Z,6.13
2017-08-23T05:57:22.498Z,6.10
2017-08-23T05:59:50.026Z,5.60
2017-08-23T06:02:18.095Z,5.43
2017-08-23T06:04:46.285Z,5.77
2017-08-23T06:07:13.802Z,5.17
2017-08-23T06:09:41.314Z,5.40
2017-08-23T06:12:08.839Z,5.70
2017-08-23T06:14:36.330Z,5.37
2017-08-23T06:17:03.875Z,5.67
2017-08-23T06:19:31.374Z,5.77
2017-08-23T06:21:58.885Z,5.90
2017-08-23T06:24:26.416Z,5.83
2017-08-23T06:26:53.917Z,5.63
2017-08-23T06:29:21.461Z,5.80
2017-08-23T06:31:48.968Z,5.53
2017-08-23T06:34:17.503Z,5.13
2017-08-23T06:36:45.062Z,5.60
2017-08-23T06:39:12.596Z,6.10
2017-08-23T06:41:40.121Z,5.67
2017-08-23T06:44:07.647Z,6.07
2017-08-23T06:46:35.184Z,5.90
2017-08-23T06:49:02.698Z,5.93
2017-08-23T06:51:30.256Z,4.60
2017-08-23T06:53:57.757Z,5.07
2017-08-23T06:56:25.276Z,5.47
2017-08-23T06:58:52.809Z,6.00
2017-08-23T07:01:20.338Z,5.30
2017-08-23T07:03:48.023Z,5.27
2017-08-23T07:06:16.790Z,5.27
2017-08-23T07:08:44.319Z,5.67
2017-08-23T07:11:11.826Z,5.30
2017-08-23T07:13:39.343Z,4.97
2017-08-23T07:16:06.898Z,4.80
2017-08-23T07:18:34.416Z,5.20
2017-08-23T07:21:01.964Z,4.80
2017-08-23T07:23:29.488Z,5.70
2017-08-23T07:25:57.043Z,4.90
2017-08-23T07:28:24.571Z,5.00
2017-08-23T07:30:52.363Z,4.73
2017-08-23T07:33:19.896Z,4.50
2017-08-23T07:35:48.304Z,4.80
2017-08-23T07:38:16.379Z,4.47
2017-08-23T07:40:43.939Z,4.47
2017-08-23T07:43:11.453Z,3.93
2017-08-23T07:45:38.969Z,4.13
2017-08-23T07:48:06.483Z,4.37
2017-08-23T07:50:34.019Z,4.30
2017-08-23T07:53:01.528Z,4.10
2017-08-23T07:55:29.082Z,4.90
2017-08-23T07:57:56.631Z,4.13
2017-08-23T08:00:24.175Z,3.63
2017-08-23T08:02:52.079Z,4.40
2017-08-23T08:05:19.590Z,4.40
2017-08-23T08:07:47.833Z,3.50
2017-08-23T08:10:15.376Z,4.20
2017-08-23T08:12:42.904Z,4.00
2017-08-23T08:15:10.405Z,4.50
2017-08-23T08:17:37.932Z,4.50
2017-08-23T08:20:05.443Z,3.90
2017-08-23T08:22:33.007Z,4.17
2017-08-23T08:25:00.503Z,3.67
2017-08-23T08:27:28.018Z,4.00
2017-08-23T08:29:55.547Z,3.97
2017-08-23T08:32:23.067Z,3.33
2017-08-23T08:34:50.610Z,3.80
2017-08-23T08:37:18.117Z,4.20
2017-08-23T08:39:46.482Z,3.87
2017-08-23T08:42:14.005Z,3.23
2017-08-23T08:44:41.549Z,4.00
2017-08-23T08:47:09.062Z,3.57
2017-08-23T08:49:36.568Z,3.50
2017-08-23T08:52:04.094Z,3.70
2017-08-23T08:54:31.617Z,3.30
2017-08-23T08:56:59.151Z,4.03
2017-08-23T08:59:26.666Z,3.30
2017-08-23T09:01:54.268Z,3.70
2017-08-23T09:04:21.810Z,3.50
2017-08-23T09:06:49.369Z,3.53
2017-08-23T09:09:16.944Z,3.07
2017-08-23T09:11:44.509Z,3.60
2017-08-23T09:14:12.069Z,4.07
2017-08-23T09:16:39.584Z,3.20
2017-08-23T09:19:07.178Z,3.63
2017-08-23T09:21:34.759Z,3.60
2017-08-23T09:24:02.300Z,3.53
2017-08-23T09:26:29.820Z,3.70
2017-08-23T09:28:57.361Z,3.80
2017-08-23T09:31:24.879Z,3.30
2017-08-23T09:33:52.396Z,3.70
2017-08-23T09:36:19.947Z,3.97
2017-08-23T09:38:48.151Z,3.67
2017-08-23T09:41:16.388Z,3.43
2017-08-23T09:43:43.911Z,3.43
2017-08-23T09:46:11.451Z,3.47
2017-08-23T09:48:38.989Z,3.67
2017-08-23T09:51:06.554Z,3.33
2017-08-23T09:53:34.076Z,3.40
2017-08-23T09:56:01.581Z,3.37
2017-08-23T09:58:29.119Z,3.13
2017-08-23T10:00:56.720Z,3.80
2017-08-23T10:03:24.277Z,3.63
2017-08-23T10:05:51.789Z,3.10
2017-08-23T10:08:20.338Z,3.30
2017-08-23T10:10:49.109Z,3.10
2017-08-23T10:13:17.528Z,3.43
2017-08-23T10:15:45.042Z,3.17
2017-08-23T10:18:12.554Z,3.60
2017-08-23T10:20:40.098Z,3.47
2017-08-23T10:23:07.611Z,2.97
2017-08-23T10:25:35.699Z,3.60
2017-08-23T10:28:03.234Z,3.10
2017-08-23T10:30:30.766Z,3.03
2017-08-23T10:32:58.265Z,3.27
2017-08-23T10:35:25.801Z,3.40
2017-08-23T10:37:53.326Z,3.10
2017-08-23T10:40:20.859Z,3.90
2017-08-23T10:42:48.383Z,3.57
2017-08-23T10:45:16.410Z,3.40
2017-08-23T10:47:43.947Z,3.30
2017-08-23T10:50:11.458Z,3.90
2017-08-23T10:52:39.030Z,3.13
2017-08-23T10:55:06.560Z,2.90
2017-08-23T10:57:34.093Z,3.67
2017-08-23T11:00:01.649Z,3.10
2017-08-23T11:02:29.163Z,3.77
2017-08-23T11:04:56.695Z,3.33
2017-08-23T11:07:24.199Z,3.40
2017-08-23T11:09:51.762Z,3.00
2017-08-23T11:12:19.262Z,3.40
2017-08-23T11:14:47.802Z,3.57
2017-08-23T11:17:15.325Z,3.13
2017-08-23T11:19:42.873Z,3.00
2017-08-23T11:22:11.546Z,2.77
2017-08-23T11:24:39.078Z,3.70
2017-08-23T11:27:06.646Z,3.07
2017-08-23T11:29:34.162Z,3.30
2017-08-23T11:32:01.698Z,3.70
2017-08-23T11:34:29.232Z,3.77
2017-08-23T11:36:56.770Z,3.93
2017-08-23T11:39:24.297Z,3.77
2017-08-23T11:41:51.816Z,3.70
2017-08-23T11:44:19.339Z,3.80
2017-08-23T11:46:46.850Z,3.80
2017-08-23T11:49:14.372Z,3.30
2017-08-23T11:51:41.899Z,3.50
2017-08-23T11:54:10.780Z,3.37
2017-08-23T11:56:38.291Z,4.07
2017-08-23T11:59:05.800Z,3.73
2017-08-23T12:01:33.327Z,3.43
2017-08-23T12:04:00.835Z,3.40
2017-08-23T12:06:28.410Z,3.10
2017-08-23T12:08:55.960Z,3.13
2017-08-23T12:11:23.473Z,2.90
2017-08-23T12:13:50.992Z,3.07
2017-08-23T12:16:18.526Z,3.00
2017-08-23T12:18:46.440Z,2.87
2017-08-23T12:21:13.954Z,3.60
2017-08-23T12:23:41.492Z,3.30
2017-08-23T12:26:09.015Z,2.90
2017-08-23T12:28:36.548Z,2.87
2017-08-23T12:31:04.068Z,2.90
2017-08-23T12:33:31.598Z,2.67
2017-08-23T12:35:59.117Z,2.97
2017-08-23T12:38:26.638Z,3.37
2017-08-23T12:40:54.151Z,3.90
2017-08-23T12:43:21.687Z,3.60
2017-08-23T12:45:49.235Z,2.93
2017-08-23T12:48:17.305Z,3.23
2017-08-23T12:50:44.839Z,2.97
2017-08-23T12:53:12.344Z,2.73
2017-08-23T12:55:39.872Z,2.57
2017-08-23T12:58:07.389Z,2.60
2017-08-23T13:00:34.933Z,3.37
2017-08-23T13:03:02.429Z,2.80
2017-08-23T13:05:29.938Z,3.40
2017-08-23T13:07:57.453Z,3.00
2017-08-23T13:10:24.955Z,2.83
2017-08-23T13:12:52.485Z,3.27
2017-08-23T13:15:19.990Z,3.17
2017-08-23T13:17:48.415Z,2.63
2017-08-23T13:20:16.772Z,2.80
2017-08-23T13:22:44.968Z,3.00
2017-08-23T13:25:12.472Z,3.00
2017-08-23T13:27:39.980Z,2.67
2017-08-23T13:30:07.504Z,2.60
2017-08-23T13:32:35.015Z,2.93
2017-08-23T13:35:02.552Z,3.40
2017-08-23T13:37:30.053Z,3.43
2017-08-23T13:39:57.595Z,3.40
2017-08-23T13:42:25.103Z,3.43
2017-08-23T13:44:52.616Z,3.10
2017-08-23T13:47:20.147Z,3.40
2017-08-23T13:49:48.791Z,3.20
2017-08-23T13:52:16.921Z,3.17
2017-08-23T13:54:44.437Z,3.33
2017-08-23T13:57:11.952Z,3.40
2017-08-23T13:59:39.464Z,3.43
2017-08-23T14:02:07.005Z,2.87
2017-08-23T14:04:35.280Z,3.40
2017-08-23T14:07:02.786Z,3.73
2017-08-23T14:09:30.363Z,3.40
2017-08-23T14:11:57.872Z,3.30
2017-08-23T14:14:25.408Z,3.30
2017-08-23T14:16:52.924Z,3.20
2017-08-23T14:19:20.433Z,3.20
2017-08-23T14:21:48.173Z,3.43
2017-08-23T14:24:15.704Z,3.50
2017-08-23T14:26:43.214Z,3.10
2017-08-23T14:29:10.724Z,3.60
2017-08-23T14:31:38.242Z,3.37
2017-08-23T14:34:05.756Z,3.30
2017-08-23T14:36:33.295Z,3.77
2017-08-23T14:39:00.807Z,3.50
2017-08-23T14:41:28.330Z,3.80
2017-08-23T14:43:55.839Z,3.23
2017-08-23T14:46:23.412Z,3.90
2017-08-23T14:48:50.915Z,3.43
2017-08-23T14:51:18.424Z,3.50
2017-08-23T14:53:46.647Z,3.87
2017-08-23T14:56:14.200Z,3.30
2017-08-23T14:58:41.742Z,3.37
2017-08-23T15:01:09.261Z,3.27
2017-08-23T15:03:36.781Z,3.20
2017-08-23T15:06:04.333Z,2.90
2017-08-23T15:08:31.878Z,3.50
2017-08-23T15:10:59.382Z,3.70
2017-08-23T15:13:26.910Z,3.50
2017-08-23T15:15:54.594Z,3.57
2017-08-23T15:18:22.125Z,3.60
2017-08-23T15:20:49.683Z,3.20
2017-08-23T15:23:17.199Z,3.80
2017-08-23T15:25:44.752Z,5.30
2017-08-23T15:28:12.406Z,5.00
2017-08-23T15:30:39.959Z,3.63
2017-08-23T15:33:07.605Z,3.90
2017-08-23T15:35:35.189Z,3.57
2017-08-23T15:38:02.933Z,3.50
2017-08-23T15:40:30.679Z,3.30
2017-08-23T15:42:58.472Z,3.70
2017-08-23T15:45:26.040Z,3.20
2017-08-23T15:47:53.582Z,3.53
2017-08-23T15:50:22.487Z,3.30
2017-08-23T15:52:50.089Z,3.27
2017-08-23T15:55:18.264Z,4.13
2017-08-23T15:57:45.784Z,6.03
2017-08-23T16:00:13.366Z,3.77
2017-08-23T16:02:40.933Z,4.90
2017-08-23T16:05:08.517Z,12.30
2017-08-23T16:07:36.056Z,4.37
2017-08-23T16:10:03.586Z,3.80
2017-08-23T16:12:31.092Z,3.27
2017-08-23T16:14:58.613Z,4.30
2017-08-23T16:17:26.131Z,4.03
2017-08-23T16:19:53.761Z,3.60
2017-08-23T16:22:21.317Z,3.63
2017-08-23T16:24:48.837Z,3.53
2017-08-23T16:27:17.528Z,3.97
2017-08-23T16:29:45.083Z,5.40
2017-08-23T16:32:12.585Z,4.10
2017-08-23T16:34:40.146Z,3.90
2017-08-23T16:37:07.653Z,3.77
2017-08-23T16:39:35.175Z,4.43
2017-08-23T16:42:02.690Z,4.00
2017-08-23T16:44:30.469Z,4.90
2017-08-23T16:46:58.937Z,4.07
2017-08-23T16:49:26.448Z,4.20
2017-08-23T16:51:53.978Z,4.50
2017-08-23T16:54:21.526Z,5.30
2017-08-23T16:56:49.055Z,5.83
2017-08-23T16:59:17.054Z,5.20
2017-08-23T17:01:44.590Z,4.50
2017-08-23T17:04:12.095Z,3.90
2017-08-23T17:06:40.642Z,4.20
2017-08-23T17:09:08.174Z,4.70
2017-08-23T17:11:35.685Z,4.63
2017-08-23T17:14:03.216Z,4.67
2017-08-23T17:16:30.770Z,4.80
2017-08-23T17:18:58.311Z,4.67
2017-08-23T17:21:25.889Z,4.67
2017-08-23T17:23:53.516Z,4.43
2017-08-23T17:26:21.054Z,4.47
2017-08-23T17:28:48.614Z,4.20
2017-08-23T17:31:16.621Z,4.90
2017-08-23T17:33:44.177Z,4.50
2017-08-23T17:36:11.729Z,4.40
2017-08-23T17:38:39.252Z,4.73
2017-08-23T17:41:06.808Z,5.07
2017-08-23T17:43:34.363Z,5.10
2017-08-23T17:46:01.912Z,5.03
2017-08-23T17:48:29.413Z,4.83
2017-08-23T17:50:56.959Z,5.07
2017-08-23T17:53:24.463Z,4.77
2017-08-23T17:55:51.970Z,4.70
2017-08-23T17:58:19.494Z,5.10
2017-08-23T18:00:47.973Z,4.90
2017-08-23T18:03:15.510Z,4.97
2017-08-23T18:05:43.025Z,4.70
2017-08-23T18:08:10.558Z,4.00
2017-08-23T18:10:38.100Z,3.70
2017-08-23T18:13:05.651Z,4.20
2017-08-23T18:15:33.150Z,4.20
2017-08-23T18:18:00.694Z,3.80
2017-08-23T18:20:28.233Z,4.50
2017-08-23T18:22:55.837Z,4.43
2017-08-23T18:25:23.356Z,4.07
2017-08-23T18:27:50.887Z,5.13
2017-08-23T18:30:18.406Z,4.60
2017-08-23T18:32:46.692Z,4.70
2017-08-23T18:35:14.297Z,4.70
2017-08-23T18:37:41.815Z,4.97
2017-08-23T18:40:09.427Z,4.20
2017-08-23T18:42:36.992Z,4.23
2017-08-23T18:45:04.566Z,4.90
2017-08-23T18:47:32.178Z,5.23
2017-08-23T18:49:59.720Z,3.80
2017-08-23T18:52:27.330Z,4.07
2017-08-23T18:54:54.831Z,3.80
2017-08-23T18:57:22.358Z,5.87
2017-08-23T18:59:49.875Z,4.27
2017-08-23T19:02:18.765Z,3.60
2017-08-23T19:04:47.423Z,4.57
2017-08-23T19:07:14.937Z,5.07
2017-08-23T19:09:42.513Z,4.27
2017-08-23T19:12:10.026Z,4.10
2017-08-23T19:14:37.671Z,4.37
2017-08-23T19:17:05.185Z,4.87
2017-08-23T19:19:32.708Z,4.90
2017-08-23T19:22:00.249Z,4.83
2017-08-23T19:24:27.969Z,4.57
2017-08-23T19:26:55.489Z,4.77
2017-08-23T19:29:23.138Z,4.50
2017-08-23T19:31:50.684Z,4.13
2017-08-23T19:34:19.131Z,4.63
2017-08-23T19:36:46.731Z,4.93
2017-08-23T19:39:14.369Z,5.23
2017-08-23T19:41:41.918Z,5.03
2017-08-23T19:44:09.473Z,4.57
2017-08-23T19:46:37.034Z,4.93
2017-08-23T19:49:05.072Z,4.83
2017-08-23T19:51:32.621Z,4.70
2017-08-23T19:54:01.287Z,5.10
2017-08-23T19:56:28.918Z,4.70
2017-08-23T19:58:56.499Z,4.47
2017-08-23T20:01:24.109Z,4.80
2017-08-23T20:03:51.658Z,4.40
2017-08-23T20:06:19.293Z,4.63
2017-08-23T20:08:47.767Z,4.93
2017-08-23T20:11:15.645Z,4.77
2017-08-23T20:13:43.157Z,4.97
2017-08-23T20:16:11.097Z,5.03
2017-08-23T20:18:38.641Z,4.90
2017-08-23T20:21:06.209Z,4.90
2017-08-23T20:23:33.950Z,4.83
2017-08-23T20:26:01.503Z,5.10
2017-08-23T20:28:29.242Z,3.83
2017-08-23T20:30:57.081Z,4.50
2017-08-23T20:33:24.637Z,4.83
2017-08-23T20:35:52.581Z,4.60
2017-08-23T20:38:20.155Z,4.97
2017-08-23T20:40:47.838Z,5.03
2017-08-23T20:43:15.409Z,4.80
2017-08-23T20:45:42.908Z,5.13
2017-08-23T20:48:10.402Z,5.00
2017-08-23T20:50:37.913Z,5.40
2017-08-23T20:53:05.427Z,4.40
2017-08-23T20:55:32.943Z,4.40
2017-08-23T20:58:00.525Z,4.63
2017-08-23T21:00:28.057Z,4.60
2017-08-23T21:02:55.604Z,5.10
2017-08-23T21:05:23.101Z,4.80
2017-08-23T21:07:50.625Z,5.03
2017-08-23T21:10:18.854Z,5.00
2017-08-23T21:12:46.866Z,5.30
2017-08-23T21:15:14.362Z,4.43
2017-08-23T21:17:41.896Z,4.57
2017-08-23T21:20:09.389Z,4.50
2017-08-23T21:22:36.882Z,4.07
2017-08-23T21:25:04.395Z,5.00
2017-08-23T21:27:31.935Z,4.57
2017-08-23T21:29:59.463Z,4.73
2017-08-23T21:32:26.956Z,4.47
2017-08-23T21:34:54.469Z,4.73
2017-08-23T21:37:21.974Z,4.90
2017-08-23T21:39:50.011Z,4.70
2017-08-23T21:42:18.063Z,5.07
2017-08-23T21:44:45.595Z,5.00
2017-08-23T21:47:13.117Z,5.67
2017-08-23T21:49:40.649Z,5.10
2017-08-23T21:52:08.175Z,4.87
2017-08-23T21:54:36.014Z,5.20
2017-08-23T21:57:03.563Z,5.53
2017-08-23T21:59:31.067Z,6.80
2017-08-23T22:01:58.611Z,6.27
2017-08-23T22:04:26.122Z,5.60
2017-08-23T22:06:53.633Z,6.23
2017-08-23T22:09:21.159Z,6.20
2017-08-23T22:11:48.676Z,6.43
2017-08-23T22:14:17.169Z,6.20
2017-08-23T22:16:44.773Z,6.20
2017-08-23T22:19:12.309Z,6.27
2017-08-23T22:21:39.812Z,5.57
2017-08-23T22:24:07.335Z,6.47
2017-08-23T22:26:34.850Z,6.63
2017-08-23T22:29:02.341Z,6.30
2017-08-23T22:31:29.868Z,6.17
2017-08-23T22:33:57.376Z,6.33
2017-08-23T22:36:24.923Z,6.20
2017-08-23T22:38:52.422Z,6.33
2017-08-23T22:41:19.969Z,5.70
2017-08-23T22:43:48.292Z,6.43
2017-08-23T22:46:15.813Z,6.37
2017-08-23T22:48:43.323Z,7.17
2017-08-23T22:51:10.840Z,6.07
2017-08-23T22:53:38.353Z,6.33
2017-08-23T22:56:05.857Z,7.13
2017-08-23T22:58:33.383Z,6.40
2017-08-23T23:01:00.886Z,6.23
2017-08-23T23:03:28.405Z,6.77
2017-08-23T23:05:55.925Z,7.47
2017-08-23T23:08:23.449Z,6.13
2017-08-23T23:10:50.949Z,6.27
2017-08-23T23:13:18.446Z,5.80
2017-08-23T23:15:45.990Z,5.73
2017-08-23T23:18:13.497Z,5.80
2017-08-23T23:20:41.017Z,6.97
2017-08-23T23:23:08.529Z,5.73
2017-08-23T23:25:36.061Z,5.97
2017-08-23T23:28:03.576Z,5.93
2017-08-23T23:30:31.090Z,6.00
2017-08-23T23:32:58.586Z,5.93
2017-08-23T23:35:26.085Z,5.93
2017-08-23T23:37:53.619Z,5.60
2017-08-23T23:40:21.120Z,6.10
2017-08-23T23:42:48.635Z,5.53
2017-08-23T23:45:16.879Z,5.70
2017-08-23T23:47:44.397Z,5.03
2017-08-23T23:50:11.907Z,5.57
2017-08-23T23:52:39.438Z,5.70
2017-08-23T23:55:06.971Z,5.87
2017-08-23T23:57:34.478Z,5.53
